Time;durP1;ratioP1;P1;durP2;ratioP2;P2;SDS_P1;SDS_P2;PMS_P1;PMS_P2;Temp;Humidity;BMP_temperature;BMP_pressure;BME280_temperature;BME280_humidity;BME280_pressure;Samples;Min_cycle;Max_cycle;Signal;HPM_P1;HPM_P2
2022/05/12 00:00:51;;;;;;;8.30;6.20;;;19.60;95.00;;;;;;4979379;28;20191;-90
2022/05/12 00:03:17;;;;;;;6.80;5.70;;;19.50;95.10;;;;;;4979377;28;20513;-90
2022/05/12 00:05:45;;;;;;;7.63;6.00;;;19.50;95.10;;;;;;4996658;28;20413;-89
2022/05/12 00:08:12;;;;;;;7.03;5.43;;;19.50;95.10;;;;;;4996465;28;20894;-91
2022/05/12 00:10:39;;;;;;;7.50;5.17;;;19.50;95.00;;;;;;4980290;28;20960;-89
2022/05/12 00:13:06;;;;;;;11.57;5.77;;;19.50;95.00;;;;;;4981931;28;20484;-91
2022/05/12 00:15:33;;;;;;;5.17;4.67;;;19.40;94.90;;;;;;4977202;28;20472;-89
2022/05/12 00:18:04;;;;;;;9.20;5.70;;;19.40;94.90;;;;;;4976392;28;20474;-89
2022/05/12 00:20:32;;;;;;;12.70;5.60;;;19.40;94.90;;;;;;4978374;28;20965;-89
2022/05/12 00:23:23;;;;;;;6.30;4.90;;;19.40;94.80;;;;;;4976722;28;20979;-89
2022/05/12 00:25:50;;;;;;;7.30;6.30;;;19.40;94.80;;;;;;4979445;28;20433;-90
2022/05/12 00:28:17;;;;;;;10.47;6.33;;;19.40;94.80;;;;;;4997118;28;20446;-90
2022/05/12 00:30:44;;;;;;;8.20;6.10;;;19.40;94.90;;;;;;4996912;28;20425;-91
2022/05/12 00:33:11;;;;;;;5.80;4.97;;;19.40;95.00;;;;;;4994223;28;20441;-91
2022/05/12 00:35:37;;;;;;;8.27;5.47;;;19.30;95.00;;;;;;4994725;28;20491;-90
2022/05/12 00:38:03;;;;;;;7.53;6.27;;;19.30;95.00;;;;;;4995852;28;20431;-91
2022/05/12 00:40:30;;;;;;;8.97;6.27;;;19.30;95.00;;;;;;4996763;28;20204;-89
2022/05/12 00:43:01;;;;;;;6.00;5.40;;;19.30;95.00;;;;;;4995665;28;21001;-91
2022/05/12 00:45:29;;;;;;;7.20;5.37;;;19.20;94.90;;;;;;4996835;28;20460;-91
2022/05/12 00:47:56;;;;;;;7.30;6.17;;;19.20;94.90;;;;;;4995103;28;20434;-90
2022/05/12 00:50:33;;;;;;;7.90;6.00;;;19.20;95.00;;;;;;4996189;28;20430;-89
2022/05/12 00:53:01;;;;;;;5.60;5.00;;;19.20;95.10;;;;;;4997477;28;20450;-89
2022/05/12 00:55:39;;;;;;;6.23;5.03;;;19.10;94.90;;;;;;4998626;28;20436;-90
2022/05/12 00:58:08;;;;;;;8.00;5.10;;;19.10;94.90;;;;;;4998127;28;20424;-90
2022/05/12 01:00:35;;;;;;;8.80;6.10;;;19.10;95.30;;;;;;4997392;28;20420;-91
2022/05/12 01:03:06;;;;;;;6.20;5.40;;;19.10;95.00;;;;;;4995300;28;20981;-89
2022/05/12 01:05:32;;;;;;;7.93;6.10;;;19.00;95.00;;;;;;4996528;28;20436;-88
2022/05/12 01:07:58;;;;;;;8.60;7.60;;;19.00;95.10;;;;;;4997773;28;20424;-90
2022/05/12 01:10:26;;;;;;;12.30;8.50;;;19.00;96.20;;;;;;4996145;28;20191;-89
2022/05/12 01:12:52;;;;;;;13.83;8.53;;;19.00;96.20;;;;;;4996545;28;20481;-89
2022/05/12 01:15:21;;;;;;;7.37;5.40;;;19.00;95.60;;;;;;4996248;28;21068;-89
2022/05/12 01:17:47;;;;;;;10.77;8.00;;;19.00;96.00;;;;;;4996582;28;20436;-90
2022/05/12 01:20:14;;;;;;;8.87;6.00;;;18.90;95.90;;;;;;4998841;28;20443;-90
2022/05/12 01:22:44;;;;;;;9.17;5.73;;;18.90;95.40;;;;;;4998485;28;20434;-89
2022/05/12 01:25:12;;;;;;;5.50;4.83;;;18.90;95.30;;;;;;5005760;28;20435;-91
2022/05/12 01:27:39;;;;;;;10.37;5.10;;;18.80;95.30;;;;;;4995521;28;20430;-90
2022/05/12 01:30:06;;;;;;;5.53;4.90;;;18.80;95.30;;;;;;4984449;28;20448;-88
2022/05/12 01:32:31;;;;;;;8.63;6.27;;;18.70;95.30;;;;;;4975758;28;20790;-92
2022/05/12 01:34:58;;;;;;;9.33;7.50;;;18.70;95.50;;;;;;4974310;28;20435;-89
2022/05/12 01:37:24;;;;;;;11.53;5.87;;;18.70;95.80;;;;;;4974782;28;20229;-90
2022/05/12 01:39:50;;;;;;;9.93;5.67;;;18.70;95.60;;;;;;4976796;28;20485;-89
2022/05/12 01:42:16;;;;;;;7.53;4.67;;;18.60;95.50;;;;;;4976661;28;20429;-90
2022/05/12 01:44:42;;;;;;;6.63;4.80;;;18.60;95.60;;;;;;4982005;28;20476;-89
2022/05/12 01:47:10;;;;;;;9.50;6.30;;;18.60;95.70;;;;;;4979851;28;20202;-91
2022/05/12 01:49:36;;;;;;;7.73;6.03;;;18.50;96.00;;;;;;4979975;28;21329;-90
2022/05/12 01:52:03;;;;;;;6.90;5.17;;;18.50;96.50;;;;;;4979844;28;20426;-89
2022/05/12 01:54:29;;;;;;;10.30;5.97;;;18.50;97.00;;;;;;4981209;28;20430;-91
2022/05/12 01:56:56;;;;;;;6.13;5.53;;;18.50;96.70;;;;;;4979656;28;20518;-92
2022/05/12 01:59:23;;;;;;;9.20;6.13;;;18.50;96.70;;;;;;4980111;28;20482;-91
2022/05/12 02:01:49;;;;;;;8.40;5.93;;;18.50;97.20;;;;;;4982098;28;20434;-90
2022/05/12 02:04:15;;;;;;;11.03;5.20;;;18.40;96.60;;;;;;4979800;28;20513;-92
2022/05/12 02:06:41;;;;;;;5.53;4.43;;;18.40;96.60;;;;;;4980659;28;20441;-91
2022/05/12 02:09:07;;;;;;;7.40;5.70;;;18.40;96.20;;;;;;4981546;28;20450;-91
2022/05/12 02:11:34;;;;;;;8.87;5.83;;;18.30;96.10;;;;;;4981184;28;20407;-90
2022/05/12 02:14:01;;;;;;;7.20;6.37;;;18.30;96.10;;;;;;4980382;28;20512;-90
2022/05/12 02:16:27;;;;;;;6.60;5.93;;;18.30;96.30;;;;;;5006797;28;20469;-90
2022/05/12 02:18:53;;;;;;;7.90;5.17;;;18.30;96.30;;;;;;4992639;28;20484;-89
2022/05/12 02:21:22;;;;;;;10.07;4.93;;;18.20;96.20;;;;;;5010588;28;20405;-90
2022/05/12 02:23:48;;;;;;;8.97;4.77;;;18.20;96.20;;;;;;4981102;28;20424;-90
2022/05/12 02:26:14;;;;;;;5.10;4.63;;;18.20;96.30;;;;;;4984618;28;20424;-88
2022/05/12 02:28:40;;;;;;;9.30;5.57;;;18.20;96.30;;;;;;5017583;28;20195;-89
2022/05/12 02:31:05;;;;;;;6.40;5.10;;;18.10;96.40;;;;;;5000706;28;20185;-89
2022/05/12 02:33:31;;;;;;;6.40;5.57;;;18.10;96.50;;;;;;5017864;28;20496;-91
2022/05/12 02:35:57;;;;;;;6.07;4.80;;;18.10;96.60;;;;;;5017625;28;20187;-90
2022/05/12 02:38:23;;;;;;;6.80;5.30;;;18.10;96.80;;;;;;5017780;28;20222;-92
2022/05/12 02:40:49;;;;;;;8.30;5.53;;;18.10;96.80;;;;;;4999988;28;20541;-92
2022/05/12 02:43:24;;;;;;;6.13;5.50;;;18.10;96.90;;;;;;5000486;28;20939;-92
2022/05/12 02:45:54;;;;;;;6.93;5.77;;;18.20;97.00;;;;;;5001250;28;20443;-89
2022/05/12 02:48:22;;;;;;;7.77;5.50;;;18.20;97.10;;;;;;5000890;28;20800;-89
2022/05/12 02:50:48;;;;;;;6.73;6.03;;;18.20;97.20;;;;;;5000872;28;20437;-91
2022/05/12 02:53:14;;;;;;;6.93;6.23;;;18.20;97.20;;;;;;5017454;28;20892;-91
2022/05/12 02:55:41;;;;;;;8.47;6.77;;;18.20;97.30;;;;;;5017845;28;20416;-91
2022/05/12 02:58:07;;;;;;;7.00;5.67;;;18.20;97.70;;;;;;5000899;28;20214;-90
2022/05/12 03:00:33;;;;;;;6.97;6.20;;;18.20;98.10;;;;;;5000635;28;20436;-89
2022/05/12 03:02:59;;;;;;;7.60;6.80;;;18.20;98.40;;;;;;5017847;28;20432;-89
2022/05/12 03:05:25;;;;;;;10.13;6.63;;;18.20;98.70;;;;;;5002086;28;20436;-90
2022/05/12 03:07:51;;;;;;;10.73;6.83;;;18.20;98.50;;;;;;5000546;28;20432;-91
2022/05/12 03:10:17;;;;;;;9.90;6.23;;;18.10;98.60;;;;;;5001514;28;20433;-89
2022/05/12 03:12:43;;;;;;;8.10;6.80;;;18.10;98.90;;;;;;5001447;28;21061;-90
2022/05/12 03:15:11;;;;;;;8.77;6.80;;;18.10;98.60;;;;;;5017332;28;20250;-91
2022/05/12 03:17:37;;;;;;;8.57;6.17;;;18.10;98.60;;;;;;5001010;28;20194;-92
2022/05/12 03:20:06;;;;;;;7.40;6.70;;;18.10;99.20;;;;;;5020038;28;20977;-91
2022/05/12 03:22:32;;;;;;;9.77;7.00;;;18.10;98.90;;;;;;5002630;28;20199;-90
2022/05/12 03:24:57;;;;;;;12.83;6.43;;;18.00;98.80;;;;;;5002615;28;20478;-89
2022/05/12 03:27:23;;;;;;;8.53;6.33;;;18.00;98.80;;;;;;4989040;28;20797;-91
2022/05/12 03:29:49;;;;;;;7.93;5.60;;;18.00;99.00;;;;;;4999117;28;20179;-91
2022/05/12 03:32:15;;;;;;;6.83;6.13;;;18.00;99.10;;;;;;4983051;28;20434;-91
2022/05/12 03:34:41;;;;;;;6.00;5.40;;;18.00;99.20;;;;;;4982850;28;20188;-90
2022/05/12 03:37:08;;;;;;;8.03;6.10;;;18.00;99.30;;;;;;4990965;28;20211;-91
2022/05/12 03:39:39;;;;;;;12.07;7.60;;;18.00;99.40;;;;;;4983800;28;20590;-91
2022/05/12 03:42:06;;;;;;;14.80;6.17;;;18.10;99.60;;;;;;4979320;28;20446;-91
2022/05/12 03:44:49;;;;;;;8.20;6.70;;;18.10;99.60;;;;;;4979592;28;20927;-91
2022/05/12 03:47:27;;;;;;;10.40;6.90;;;18.10;99.60;;;;;;4978864;28;20552;-92
2022/05/12 03:50:00;;;;;;;9.17;7.03;;;18.10;99.70;;;;;;4997592;28;20970;-90
2022/05/12 03:52:26;;;;;;;13.57;8.17;;;18.20;99.50;;;;;;4991666;28;20900;-90
2022/05/12 03:54:51;;;;;;;151.30;79.43;;;18.20;99.60;;;;;;4999271;28;20428;-90
2022/05/12 03:57:18;;;;;;;11.60;8.83;;;18.10;99.70;;;;;;4999268;28;20440;-91
2022/05/12 03:59:48;;;;;;;10.70;8.63;;;18.20;99.90;;;;;;4999247;28;20356;-92
2022/05/12 04:02:14;;;;;;;10.57;6.77;;;18.20;99.90;;;;;;4998205;28;20440;-92
2022/05/12 04:04:43;;;;;;;9.83;7.30;;;18.20;99.90;;;;;;5016192;28;20433;-90
2022/05/12 04:07:11;;;;;;;11.00;8.40;;;18.20;99.90;;;;;;4998697;28;20443;-92
2022/05/12 04:09:37;;;;;;;15.90;8.40;;;18.20;99.90;;;;;;5016457;28;20462;-90
2022/05/12 04:12:05;;;;;;;9.00;7.10;;;18.20;99.90;;;;;;5017568;28;20428;-92
2022/05/12 04:14:32;;;;;;;10.40;7.30;;;18.20;99.90;;;;;;4999152;28;20471;-90
2022/05/12 04:16:59;;;;;;;9.30;6.97;;;18.20;99.90;;;;;;4999870;28;20440;-90
2022/05/12 04:19:24;;;;;;;9.40;7.43;;;18.20;99.90;;;;;;5016632;28;20568;-90
2022/05/12 04:21:52;;;;;;;12.30;8.30;;;18.20;99.90;;;;;;5002458;28;20996;-91
2022/05/12 04:24:19;;;;;;;9.47;7.37;;;18.20;99.90;;;;;;4999933;28;20195;-89
2022/05/12 04:26:46;;;;;;;10.27;6.93;;;18.20;99.90;;;;;;5015016;28;20441;-91
2022/05/12 04:29:12;;;;;;;9.83;7.17;;;18.20;99.90;;;;;;5015877;28;20420;-90
2022/05/12 04:31:39;;;;;;;11.20;7.57;;;18.20;99.90;;;;;;5014351;28;21016;-89
2022/05/12 04:36:50;;;;;;;8.87;7.67;;;18.20;99.90;;;;;;5016862;28;20428;-92
2022/05/12 04:39:17;;;;;;;13.07;7.70;;;18.20;99.90;;;;;;4998232;28;20481;-89
2022/05/12 04:41:43;;;;;;;8.90;6.60;;;18.30;99.90;;;;;;4997814;28;20208;-90
2022/05/12 04:44:10;;;;;;;9.90;8.43;;;18.30;99.90;;;;;;4981973;28;20508;-90
2022/05/12 04:46:37;;;;;;;7.47;6.67;;;18.40;99.90;;;;;;4979932;28;20410;-92
2022/05/12 04:49:05;;;;;;;8.10;6.17;;;18.40;99.90;;;;;;4996365;28;20425;-92
2022/05/12 04:51:31;;;;;;;8.27;7.40;;;18.50;99.90;;;;;;4984665;28;20434;-91
2022/05/12 04:54:01;;;;;;;8.93;7.30;;;18.50;99.90;;;;;;4997685;28;20443;-90
2022/05/12 04:56:27;;;;;;;9.10;6.37;;;18.60;99.90;;;;;;4995716;28;20525;-91
2022/05/12 04:58:53;;;;;;;7.07;6.37;;;18.70;99.90;;;;;;4995191;28;20975;-90
2022/05/12 05:01:19;;;;;;;7.20;6.47;;;18.70;99.90;;;;;;4990590;28;20468;-89
2022/05/12 05:03:45;;;;;;;8.37;6.80;;;18.80;99.90;;;;;;4998572;28;20448;-92
2022/05/12 05:06:11;;;;;;;8.37;7.33;;;18.90;99.90;;;;;;5015033;28;20476;-91
2022/05/12 05:08:37;;;;;;;8.50;7.60;;;18.90;99.90;;;;;;4992291;28;21042;-90
2022/05/12 05:11:06;;;;;;;14.00;8.10;;;19.00;99.90;;;;;;4998532;28;20423;-90
2022/05/12 05:13:32;;;;;;;8.67;7.77;;;19.10;99.90;;;;;;5011548;28;20208;-90
2022/05/12 05:15:59;;;;;;;9.60;7.40;;;19.10;99.90;;;;;;5005337;28;20482;-92
2022/05/12 05:18:24;;;;;;;12.37;7.80;;;19.20;99.90;;;;;;5000908;28;20484;-90
2022/05/12 05:20:51;;;;;;;11.20;8.50;;;19.20;99.90;;;;;;5019175;28;20854;-90
2022/05/12 05:23:21;;;;;;;9.93;7.97;;;19.30;99.90;;;;;;5019767;28;20208;-92
2022/05/12 05:25:48;;;;;;;9.30;8.00;;;19.30;99.90;;;;;;5001437;28;20435;-90
2022/05/12 05:28:15;;;;;;;8.63;7.03;;;19.40;99.90;;;;;;4999724;28;21022;-90
2022/05/12 05:30:41;;;;;;;8.60;7.70;;;19.50;99.90;;;;;;4997278;28;20482;-92
2022/05/12 05:33:08;;;;;;;9.97;8.03;;;19.50;99.90;;;;;;5011230;28;20443;-90
2022/05/12 05:35:34;;;;;;;7.30;6.40;;;19.60;99.90;;;;;;4996967;28;20866;-91
2022/05/12 05:38:01;;;;;;;10.10;8.30;;;19.70;99.90;;;;;;5019051;28;20968;-92
2022/05/12 05:40:28;;;;;;;11.73;8.23;;;19.80;99.90;;;;;;5020559;28;20442;-89
2022/05/12 05:42:55;;;;;;;8.67;7.57;;;19.80;99.90;;;;;;5012933;28;20448;-89
2022/05/12 05:45:21;;;;;;;7.47;6.63;;;20.00;99.90;;;;;;5001080;28;20488;-90
2022/05/12 05:47:51;;;;;;;9.43;8.53;;;20.00;99.90;;;;;;5000876;28;20608;-89
2022/05/12 05:50:20;;;;;;;8.83;7.50;;;20.10;99.90;;;;;;5018750;28;20449;-89
2022/05/12 05:55:34;;;;;;;9.93;8.30;;;20.30;99.90;;;;;;5017777;28;20434;-92
2022/05/12 05:58:03;;;;;;;10.40;8.47;;;20.40;99.90;;;;;;5000154;28;20432;-90
2022/05/12 06:00:31;;;;;;;10.37;8.20;;;20.50;99.90;;;;;;4998192;28;20447;-92
2022/05/12 06:02:57;;;;;;;9.43;8.10;;;20.50;99.90;;;;;;4998354;28;20867;-92
2022/05/12 06:05:23;;;;;;;9.83;8.50;;;20.70;99.90;;;;;;5000826;28;20765;-92
2022/05/12 06:07:50;;;;;;;8.67;7.77;;;20.80;99.90;;;;;;5000325;28;20474;-90
2022/05/12 06:10:16;;;;;;;8.60;7.70;;;20.90;99.90;;;;;;5017660;28;20792;-91
2022/05/12 06:12:42;;;;;;;10.00;8.63;;;21.00;99.90;;;;;;5019067;28;20432;-89
2022/05/12 06:15:09;;;;;;;8.60;7.70;;;21.10;99.90;;;;;;5010268;28;20571;-89
2022/05/12 06:17:36;;;;;;;8.73;7.90;;;21.20;99.90;;;;;;5006421;28;20627;-91
2022/05/12 06:20:06;;;;;;;10.00;9.00;;;21.30;99.90;;;;;;4999616;28;20994;-92
2022/05/12 06:22:32;;;;;;;11.10;8.27;;;21.40;99.90;;;;;;5009244;28;20443;-90
2022/05/12 06:24:58;;;;;;;9.03;8.10;;;21.50;99.90;;;;;;4994120;28;20965;-91
2022/05/12 06:27:24;;;;;;;8.13;7.30;;;21.60;99.90;;;;;;4998262;28;20463;-92
2022/05/12 06:29:51;;;;;;;10.10;9.10;;;21.70;99.90;;;;;;5014224;28;20440;-91
2022/05/12 06:32:18;;;;;;;9.10;8.30;;;21.80;99.90;;;;;;4994980;28;20456;-89
2022/05/12 06:34:45;;;;;;;10.33;8.30;;;21.90;99.90;;;;;;5000105;28;20927;-89
2022/05/12 06:37:12;;;;;;;9.93;8.13;;;22.00;99.90;;;;;;4996517;28;20837;-89
2022/05/12 06:39:38;;;;;;;10.07;7.87;;;22.10;99.90;;;;;;4992992;28;20484;-89
2022/05/12 06:42:05;;;;;;;10.10;6.73;;;22.10;99.90;;;;;;4997702;28;20441;-89
2022/05/12 06:44:31;;;;;;;8.10;7.30;;;22.30;99.90;;;;;;5014981;28;20434;-92
2022/05/12 06:46:57;;;;;;;8.43;7.60;;;22.40;99.90;;;;;;4999327;28;20891;-92
2022/05/12 06:49:23;;;;;;;8.00;7.30;;;22.50;99.90;;;;;;4999037;28;20645;-90
2022/05/12 06:51:48;;;;;;;9.37;8.00;;;22.60;99.90;;;;;;4999369;28;20422;-90
2022/05/12 06:54:14;;;;;;;8.77;7.97;;;22.70;99.90;;;;;;4999076;28;20505;-90
2022/05/12 06:56:43;;;;;;;10.30;8.10;;;22.80;99.90;;;;;;4998228;28;20206;-90
2022/05/12 06:59:09;;;;;;;9.10;7.37;;;22.90;99.90;;;;;;5002598;28;20515;-91
2022/05/12 07:01:35;;;;;;;11.97;8.00;;;23.00;99.90;;;;;;5005568;28;20441;-89
2022/05/12 07:04:01;;;;;;;9.23;7.70;;;23.00;99.90;;;;;;5008289;28;20187;-90
2022/05/12 07:06:28;;;;;;;8.00;7.30;;;23.10;99.90;;;;;;5007230;28;20496;-92
2022/05/12 07:08:54;;;;;;;9.07;8.17;;;23.20;99.90;;;;;;4992280;28;20481;-90
2022/05/12 07:11:20;;;;;;;7.90;7.10;;;23.30;99.90;;;;;;5008868;28;20882;-91
2022/05/12 07:13:46;;;;;;;7.57;6.83;;;23.40;99.90;;;;;;4994784;28;20585;-90
2022/05/12 07:16:12;;;;;;;10.40;8.30;;;23.50;99.90;;;;;;5010122;28;20240;-90
2022/05/12 07:18:38;;;;;;;8.37;7.57;;;23.60;99.90;;;;;;4991614;28;20228;-89
2022/05/12 07:26:39;;;;;;;6.93;6.40;;;23.90;98.50;;;;;;5005472;28;20442;-92
2022/05/12 07:29:17;;;;;;;9.17;6.50;;;24.00;98.80;;;;;;5012007;28;20517;-90
2022/05/12 07:31:43;;;;;;;7.37;6.60;;;24.10;98.30;;;;;;5013107;28;20470;-90
2022/05/12 07:34:09;;;;;;;7.80;7.07;;;24.20;98.40;;;;;;4994227;28;20452;-90
2022/05/12 07:36:38;;;;;;;8.27;7.43;;;24.30;97.70;;;;;;4994172;28;20424;-92
2022/05/12 07:39:05;;;;;;;8.60;7.70;;;24.30;97.60;;;;;;5012776;28;20491;-91
2022/05/12 07:41:32;;;;;;;6.70;6.10;;;24.40;98.00;;;;;;5010297;28;20438;-91
2022/05/12 07:43:58;;;;;;;8.53;7.00;;;24.60;98.50;;;;;;4993860;28;20972;-92
2022/05/12 07:46:27;;;;;;;6.67;6.00;;;24.70;97.50;;;;;;5013955;28;20804;-91
2022/05/12 07:48:54;;;;;;;11.50;6.80;;;24.80;96.10;;;;;;5012575;28;20559;-91
2022/05/12 07:51:20;;;;;;;5.97;5.47;;;24.90;95.20;;;;;;4998315;28;20447;-90
2022/05/12 07:53:48;;;;;;;6.27;5.47;;;24.90;95.20;;;;;;5003476;28;20841;-91
2022/05/12 07:56:15;;;;;;;7.77;6.00;;;25.00;95.00;;;;;;5012733;28;20408;-91
2022/05/12 07:58:42;;;;;;;6.70;6.00;;;25.00;94.80;;;;;;4998804;28;20510;-92
2022/05/12 08:01:10;;;;;;;8.10;4.80;;;25.10;94.20;;;;;;5018971;28;20459;-89
2022/05/12 08:03:37;;;;;;;6.43;5.20;;;25.20;93.90;;;;;;4995378;28;20493;-90
2022/05/12 08:06:03;;;;;;;7.47;5.83;;;25.30;93.60;;;;;;5008323;28;20432;-90
2022/05/12 08:08:29;;;;;;;5.30;4.80;;;25.30;92.50;;;;;;4985521;28;20441;-92
2022/05/12 08:10:54;;;;;;;4.77;4.30;;;25.40;93.00;;;;;;4992046;28;20443;-93
2022/05/12 08:13:21;;;;;;;5.07;4.57;;;25.50;92.70;;;;;;4999742;28;20206;-90
2022/05/12 08:15:50;;;;;;;5.10;4.60;;;25.50;92.10;;;;;;5013141;28;20249;-92
2022/05/12 08:18:21;;;;;;;5.30;4.57;;;25.60;92.20;;;;;;4995605;28;20440;-90
2022/05/12 08:20:48;;;;;;;15.50;8.70;;;25.70;92.40;;;;;;4996316;28;20433;-92
2022/05/12 08:23:13;;;;;;;4.93;4.43;;;25.70;91.60;;;;;;4995722;28;20955;-90
2022/05/12 08:25:40;;;;;;;5.87;5.23;;;25.80;91.40;;;;;;5009761;28;20467;-90
2022/05/12 08:28:07;;;;;;;4.83;4.33;;;25.90;91.50;;;;;;4999259;28;20202;-89
2022/05/12 08:30:33;;;;;;;5.43;4.90;;;26.00;92.00;;;;;;5009365;28;20841;-90
2022/05/12 08:33:00;;;;;;;6.40;5.00;;;26.00;91.20;;;;;;4994880;28;20539;-90
2022/05/12 08:35:27;;;;;;;5.03;4.53;;;26.10;91.50;;;;;;4993784;28;20436;-90
2022/05/12 08:37:53;;;;;;;6.60;5.90;;;26.10;90.90;;;;;;4991811;28;20506;-90
2022/05/12 08:40:45;;;;;;;10.70;4.77;;;26.20;91.10;;;;;;4993099;28;20473;-90
2022/05/12 08:43:21;;;;;;;6.07;5.47;;;26.30;91.00;;;;;;4999546;28;20477;-93
2022/05/12 08:45:47;;;;;;;12.37;5.20;;;26.40;90.50;;;;;;4986084;28;20424;-91
2022/05/12 08:48:15;;;;;;;7.90;4.80;;;26.40;90.30;;;;;;4984924;28;20432;-91
2022/05/12 08:50:41;;;;;;;5.57;5.07;;;26.50;90.80;;;;;;5016986;28;20484;-92
2022/05/12 08:53:18;;;;;;;4.60;3.70;;;26.60;90.70;;;;;;4994946;28;20441;-92
2022/05/12 08:55:53;;;;;;;4.53;3.97;;;26.70;87.80;;;;;;4985022;28;20460;-90
2022/05/12 08:58:35;;;;;;;5.00;3.60;;;26.80;88.30;;;;;;4986948;28;20917;-90
2022/05/12 09:01:10;;;;;;;4.00;3.70;;;26.90;86.30;;;;;;5005391;28;20441;-90
2022/05/12 09:03:55;;;;;;;5.03;3.77;;;26.90;86.50;;;;;;4995249;28;20890;-90
2022/05/12 09:06:47;;;;;;;5.83;4.07;;;26.90;84.90;;;;;;4990592;28;20527;-90
2022/05/12 09:09:31;;;;;;;4.40;3.57;;;27.00;85.30;;;;;;4989080;28;20438;-93
2022/05/12 09:12:36;;;;;;;4.90;3.50;;;27.10;86.80;;;;;;4990265;28;20477;-93
2022/05/12 09:15:17;;;;;;;3.90;3.60;;;27.20;84.80;;;;;;4956753;28;20492;-91
2022/05/12 09:17:57;;;;;;;4.70;3.73;;;27.20;84.90;;;;;;4991531;28;20509;-92
2022/05/12 09:20:26;;;;;;;7.33;4.40;;;27.20;84.70;;;;;;5004158;28;20464;-92
2022/05/12 09:22:51;;;;;;;4.33;3.50;;;27.30;85.00;;;;;;5010555;28;20599;-91
2022/05/12 09:25:42;;;;;;;4.13;3.83;;;27.30;84.30;;;;;;4996467;28;20481;-90
2022/05/12 09:28:44;;;;;;;4.00;3.20;;;27.40;84.90;;;;;;5006233;28;20207;-90
2022/05/12 09:31:13;;;;;;;4.30;3.73;;;27.50;85.00;;;;;;5009533;28;20432;-91
2022/05/12 09:33:39;;;;;;;4.87;4.10;;;27.50;84.00;;;;;;5002475;28;20465;-94
2022/05/12 09:36:08;;;;;;;4.53;4.10;;;27.60;84.20;;;;;;4996576;28;20440;-89
2022/05/12 09:38:44;;;;;;;4.30;3.90;;;27.50;84.60;;;;;;4991628;28;20530;-90
2022/05/12 09:41:21;;;;;;;3.73;3.43;;;27.60;84.10;;;;;;5019194;28;20451;-90
2022/05/12 09:43:51;;;;;;;4.83;3.70;;;27.60;83.70;;;;;;4994671;28;20435;-90
2022/05/12 09:46:16;;;;;;;4.87;4.07;;;27.70;83.50;;;;;;4992460;28;20439;-90
2022/05/12 09:48:44;;;;;;;5.40;3.80;;;27.70;83.90;;;;;;4988289;28;20469;-89
2022/05/12 09:51:24;;;;;;;4.40;3.97;;;27.70;83.60;;;;;;5009096;28;20183;-90
2022/05/12 09:53:53;;;;;;;6.70;4.20;;;27.80;85.20;;;;;;4990760;28;20491;-89
2022/05/12 09:56:29;;;;;;;5.20;4.27;;;27.90;83.80;;;;;;5014067;28;20449;-90
2022/05/12 09:59:06;;;;;;;4.23;3.57;;;28.00;83.30;;;;;;5001673;28;20687;-91
2022/05/12 10:01:33;;;;;;;4.40;3.83;;;28.00;83.80;;;;;;4991782;28;20519;-92
2022/05/12 10:07:53;;;;;;;4.53;4.13;;;28.10;82.80;;;;;;5016107;28;21011;-91
2022/05/12 10:10:15;;;;;;;5.43;4.07;;;28.10;83.10;;;;;;5014843;28;20531;-90
2022/05/12 10:12:52;;;;;;;5.57;4.97;;;28.10;83.30;;;;;;4996842;28;20449;-91
2022/05/12 10:15:32;;;;;;;5.13;4.50;;;28.20;84.30;;;;;;5001184;28;20472;-91
2022/05/12 10:18:13;;;;;;;5.30;4.80;;;28.20;84.90;;;;;;4996141;28;20466;-90
2022/05/12 10:20:46;;;;;;;6.90;4.50;;;28.30;84.30;;;;;;5007042;28;20443;-92
2022/05/12 10:23:40;;;;;;;5.20;4.53;;;28.30;83.50;;;;;;4995684;28;20480;-91
2022/05/12 10:26:22;;;;;;;9.23;4.37;;;28.30;82.70;;;;;;5014420;28;20575;-92
2022/05/12 10:29:04;;;;;;;5.33;4.60;;;28.20;83.40;;;;;;5007729;28;20515;-91
2022/05/12 10:31:43;;;;;;;4.97;4.47;;;28.20;84.10;;;;;;5013821;28;20536;-90
2022/05/12 10:34:40;;;;;;;4.93;4.47;;;28.30;84.00;;;;;;5000420;28;20452;-90
2022/05/12 10:37:24;;;;;;;5.87;4.70;;;28.20;83.50;;;;;;4995393;28;20966;-92
2022/05/12 10:40:27;;;;;;;6.20;5.70;;;28.30;84.50;;;;;;4990327;28;20482;-92
2022/05/12 10:43:07;;;;;;;6.20;4.90;;;28.30;84.30;;;;;;5020715;28;20477;-90
2022/05/12 10:45:59;;;;;;;8.83;5.47;;;28.40;85.00;;;;;;4988250;28;20777;-93
2022/05/12 10:48:39;;;;;;;4.87;4.30;;;28.50;85.20;;;;;;5014448;28;20489;-90
2022/05/12 10:51:26;;;;;;;7.13;4.90;;;28.50;83.80;;;;;;4998413;28;20442;-90
2022/05/12 10:54:20;;;;;;;6.13;4.70;;;28.60;84.50;;;;;;5008350;28;20435;-91
2022/05/12 10:57:30;;;;;;;5.60;4.80;;;28.60;84.60;;;;;;4994175;28;20952;-91
2022/05/12 11:00:05;;;;;;;5.00;4.50;;;28.70;84.60;;;;;;4966343;28;20521;-89
2022/05/12 11:02:46;;;;;;;5.73;4.83;;;28.70;85.10;;;;;;4991419;28;20482;-89
2022/05/12 11:05:26;;;;;;;5.47;4.57;;;28.80;85.00;;;;;;5010054;28;20430;-92
2022/05/12 11:08:12;;;;;;;6.10;5.50;;;28.90;83.60;;;;;;5010010;28;20554;-91
2022/05/12 11:10:54;;;;;;;5.10;4.60;;;28.90;83.50;;;;;;4995722;28;20427;-92
2022/05/12 11:13:41;;;;;;;5.80;4.73;;;28.90;81.90;;;;;;4994450;28;20453;-91
2022/05/12 11:16:13;;;;;;;6.40;4.53;;;29.00;82.30;;;;;;4989014;28;20480;-91
2022/05/12 11:18:53;;;;;;;6.07;5.07;;;29.00;82.80;;;;;;4993733;28;20488;-90
2022/05/12 11:21:27;;;;;;;5.07;4.60;;;29.00;82.80;;;;;;5014820;28;20412;-91
2022/05/12 11:24:04;;;;;;;6.17;4.87;;;29.10;83.40;;;;;;5013211;28;20806;-90
2022/05/12 11:26:39;;;;;;;12.07;4.90;;;29.10;81.70;;;;;;4996638;28;20802;-90
2022/05/12 11:32:33;;;;;;;5.80;5.30;;;29.20;82.50;;;;;;5011517;28;20939;-92
2022/05/12 11:35:05;;;;;;;6.43;4.60;;;29.20;81.90;;;;;;5015752;28;20457;-92
2022/05/12 11:37:31;;;;;;;5.67;4.97;;;29.20;80.40;;;;;;4995956;28;20474;-92
2022/05/12 11:40:00;;;;;;;5.07;4.50;;;29.30;80.90;;;;;;5003084;28;20565;-91
2022/05/12 11:45:36;;;;;;;5.13;4.63;;;29.30;81.30;;;;;;5015222;28;20441;-90
2022/05/12 11:48:33;;;;;;;4.80;3.80;;;29.20;80.20;;;;;;4993752;28;20451;-91
2022/05/12 11:50:58;;;;;;;6.57;4.43;;;29.20;81.40;;;;;;4989316;28;20452;-90
2022/05/12 11:53:47;;;;;;;6.30;4.57;;;29.30;80.80;;;;;;5005071;28;20452;-90
2022/05/12 11:56:13;;;;;;;7.37;4.60;;;29.30;79.30;;;;;;5003538;28;20217;-90
2022/05/12 11:58:47;;;;;;;5.60;4.53;;;29.40;79.60;;;;;;5004734;28;20518;-89
2022/05/12 12:01:14;;;;;;;6.00;4.60;;;29.50;80.40;;;;;;4991217;28;20786;-91
2022/05/12 12:03:54;;;;;;;5.77;4.90;;;29.50;79.10;;;;;;5012532;28;20462;-91
2022/05/12 12:06:42;;;;;;;10.00;5.30;;;29.60;79.50;;;;;;5000020;28;20444;-91
2022/05/12 12:09:31;;;;;;;5.20;4.60;;;29.70;80.70;;;;;;4981363;28;20475;-91
2022/05/12 12:11:58;;;;;;;4.87;4.47;;;29.80;80.70;;;;;;5003560;28;20463;-92
2022/05/12 12:14:42;;;;;;;5.63;4.43;;;29.80;80.30;;;;;;4989835;28;20471;-92
2022/05/12 12:17:30;;;;;;;7.17;5.43;;;29.90;80.70;;;;;;4987719;28;20472;-89
2022/05/12 12:20:02;;;;;;;6.20;4.67;;;29.90;79.10;;;;;;4984022;28;20482;-92
2022/05/12 12:22:46;;;;;;;8.23;4.07;;;29.90;79.90;;;;;;4995600;28;20863;-91
2022/05/12 12:25:38;;;;;;;5.50;4.27;;;29.90;77.90;;;;;;5008414;28;20482;-93
2022/05/12 12:28:29;;;;;;;5.07;4.67;;;29.90;78.30;;;;;;4986177;28;20596;-92
2022/05/12 12:30:55;;;;;;;5.03;4.20;;;30.00;77.20;;;;;;5008298;28;20492;-92
2022/05/12 12:33:24;;;;;;;4.80;4.20;;;30.00;78.60;;;;;;5001308;28;20966;-90
2022/05/12 12:36:01;;;;;;;5.00;4.30;;;29.90;80.20;;;;;;5005089;28;20441;-91
2022/05/12 12:39:13;;;;;;;5.80;5.20;;;30.00;78.70;;;;;;5000142;28;20479;-91
2022/05/12 12:41:42;;;;;;;4.77;4.07;;;30.10;77.90;;;;;;4996327;28;20471;-90
2022/05/12 12:44:09;;;;;;;10.83;4.70;;;30.10;78.10;;;;;;5012397;28;20435;-93
2022/05/12 12:47:12;;;;;;;4.77;4.27;;;30.00;78.10;;;;;;4997427;28;20444;-91
2022/05/12 12:49:47;;;;;;;4.10;3.70;;;30.00;77.30;;;;;;5002347;28;21037;-92
2022/05/12 12:52:14;;;;;;;4.40;4.00;;;30.00;73.90;;;;;;5007593;28;20513;-92
2022/05/12 12:57:28;;;;;;;4.13;3.83;;;30.10;74.40;;;;;;5014466;28;20537;-91
2022/05/12 13:00:06;;;;;;;6.43;4.93;;;30.10;74.60;;;;;;4990908;28;21185;-91
2022/05/12 13:02:41;;;;;;;4.80;3.60;;;30.20;74.70;;;;;;4987772;28;20516;-91
2022/05/12 13:05:14;;;;;;;4.17;3.70;;;30.20;75.00;;;;;;4996494;28;20449;-90
2022/05/12 13:07:42;;;;;;;6.50;4.37;;;30.30;74.50;;;;;;5007785;28;20455;-91
2022/05/12 13:10:12;;;;;;;5.40;4.13;;;30.30;75.80;;;;;;5017279;28;20428;-90
2022/05/12 13:12:38;;;;;;;4.20;3.90;;;30.30;76.70;;;;;;5005802;28;21013;-89
2022/05/12 13:15:16;;;;;;;4.17;3.80;;;30.40;74.60;;;;;;5010157;28;20475;-92
2022/05/12 13:17:46;;;;;;;5.90;4.60;;;30.40;75.30;;;;;;4991028;28;20464;-91
2022/05/12 13:20:24;;;;;;;4.77;3.97;;;30.40;75.40;;;;;;4993644;28;20470;-91
2022/05/12 13:22:55;;;;;;;4.07;3.77;;;30.40;75.10;;;;;;4991621;28;20446;-92
2022/05/12 13:25:25;;;;;;;4.80;3.50;;;30.40;74.50;;;;;;5006052;28;20435;-91
2022/05/12 13:27:51;;;;;;;4.47;4.07;;;30.40;74.90;;;;;;4993046;28;20445;-91